Fish Camp, California
Current Conditions -  °F | °C
As of 11:53 PM on Thursday 30 Oct 2014 (Local Time) from KMAE Reporting Station
Haze Haze  
Wind Chill: 57°   Ceiling: Unl
Heat Index: 57°   Visibility: 6mi
Dew Point: 46°   Wind: 0mph
Humidity: 67%   Direction: NA
Pressure: 29.88"   Gusts: NA
Location:  37.48°N, 119.64°W
Report Text: KMAE 310653Z AUTO 00000KT 6SM HZ CLR 14/08 A2988 RMK AO2 SLP117 T01390078
Loading
Personal Weather Stations






























Interactive Weather Map
Tropical Storm Tracking
New forecast layout! Learn more

10-Day Weather Forecast

Advertisements
Track Severe Weather on mobile